Time;durP1;ratioP1;P1;durP2;ratioP2;P2;SDS_P1;SDS_P2;PMS_P1;PMS_P2;Temp;Humidity;BMP_temperature;BMP_pressure;BME280_temperature;BME280_humidity;BME280_pressure;Samples;Min_cycle;Max_cycle;Signal;HPM_P1;HPM_P2
2021/09/12 00:08:05;;;;;;;20.57;18.57;;;;;;;15.10;100.00;100425.81;21164990;27;20221;-64
2021/09/12 00:18:09;;;;;;;22.67;20.37;;;;;;;15.10;100.00;100433.88;21164113;28;20260;-62
2021/09/12 00:38:13;;;;;;;21.00;18.97;;;;;;;15.14;100.00;100435.38;20990774;27;20565;-64
2021/09/12 00:48:15;;;;;;;21.93;19.83;;;;;;;15.11;100.00;100427.53;20975133;28;20284;-64
2021/09/12 00:58:19;;;;;;;19.90;18.00;;;;;;;15.02;100.00;100425.59;20974585;28;20293;-62
2021/09/12 01:28:19;;;;;;;17.40;15.80;;;;;;;14.41;100.00;100407.19;21242028;27;20604;-64
2021/09/12 02:08:11;;;;;;;15.40;13.93;;;;;;;14.48;100.00;100414.78;20979132;27;21157;-63
2021/09/12 02:18:13;;;;;;;14.60;13.30;;;;;;;14.38;100.00;100410.06;20974825;28;20218;-63
2021/09/12 02:28:18;;;;;;;18.07;16.20;;;;;;;14.32;100.00;100404.34;20974552;28;20215;-64
2021/09/12 02:38:20;;;;;;;13.33;12.10;;;;;;;14.30;100.00;100400.91;20973855;28;21257;-63
2021/09/12 02:48:24;;;;;;;15.27;13.77;;;;;;;14.18;100.00;100413.47;20972924;28;20234;-63
2021/09/12 02:58:26;;;;;;;16.30;14.83;;;;;;;14.07;100.00;100410.75;20971738;28;20250;-63
2021/09/12 03:08:30;;;;;;;16.77;15.17;;;;;;;13.95;100.00;100404.50;20971123;28;20318;-62
2021/09/12 03:18:32;;;;;;;10.70;9.80;;;;;;;13.72;100.00;100417.97;20999840;28;20341;-63
2021/09/12 03:28:36;;;;;;;12.47;11.03;;;;;;;13.54;100.00;100425.56;20998043;28;20572;-63
2021/09/12 03:38:38;;;;;;;12.60;11.47;;;;;;;13.37;100.00;100426.84;20995687;28;20653;-62
2021/09/12 03:58:39;;;;;;;12.50;11.30;;;;;;;13.23;100.00;100422.50;21063262;27;20574;-65
2021/09/12 04:08:41;;;;;;;17.97;16.17;;;;;;;13.24;100.00;100426.88;21059165;28;20633;-63
2021/09/12 04:18:45;;;;;;;17.13;15.33;;;;;;;13.44;100.00;100441.47;21058341;28;20222;-63
2021/09/12 04:28:47;;;;;;;20.10;17.73;;;;;;;13.57;100.00;100444.09;21057418;28;20600;-62
2021/09/12 04:38:51;;;;;;;16.63;15.03;;;;;;;13.72;100.00;100434.91;21055270;28;20229;-63
2021/09/12 04:48:53;;;;;;;19.00;16.97;;;;;;;14.07;100.00;100432.22;21056049;28;20725;-63
2021/09/12 04:58:57;;;;;;;15.93;14.40;;;;;;;14.42;100.00;100448.31;21054995;28;20222;-63
2021/09/12 05:08:59;;;;;;;14.63;13.30;;;;;;;14.88;100.00;100444.66;21003650;27;20257;-63
2021/09/12 05:19:02;;;;;;;12.17;11.10;;;;;;;15.38;100.00;100448.63;20997544;28;20234;-63
2021/09/12 05:29:05;;;;;;;17.97;16.33;;;;;;;15.85;100.00;100444.72;20996573;28;20239;-63
2021/09/12 05:39:08;;;;;;;16.60;15.10;;;;;;;16.35;100.00;100442.22;20995684;28;20691;-64
2021/09/12 05:49:11;;;;;;;16.50;15.03;;;;;;;16.82;100.00;100447.06;20995432;28;20243;-64
2021/09/12 05:59:14;;;;;;;13.90;12.80;;;;;;;17.37;100.00;100460.16;20993054;28;20315;-64
2021/09/12 06:09:17;;;;;;;17.27;15.80;;;;;;;17.78;100.00;100459.94;20993806;28;20508;-65
2021/09/12 06:19:20;;;;;;;19.10;17.40;;;;;;;17.95;100.00;100453.00;20991905;28;20564;-63
2021/09/12 06:29:23;;;;;;;18.90;17.30;;;;;;;18.41;100.00;100467.59;20991620;28;20576;-63
2021/09/12 06:39:27;;;;;;;18.70;17.00;;;;;;;19.00;100.00;100470.84;20987877;28;20228;-62
2021/09/12 06:49:29;;;;;;;18.47;16.77;;;;;;;19.57;100.00;100479.69;20987864;28;20272;-65
2021/09/12 06:59:33;;;;;;;17.23;15.73;;;;;;;20.16;100.00;100474.69;20989044;28;20245;-67
2021/09/12 07:09:36;;;;;;;16.27;14.63;;;;;;;20.87;100.00;100475.41;20982064;28;20227;-62
2021/09/12 07:19:40;;;;;;;16.97;15.67;;;;;;;21.63;100.00;100478.09;20951008;28;20729;-65
2021/09/12 07:29:43;;;;;;;17.70;16.30;;;;;;;22.12;100.00;100489.94;20935959;28;20226;-59
2021/09/12 07:39:48;;;;;;;17.33;15.97;;;;;;;22.78;100.00;100497.09;20933438;28;20226;-65
2021/09/12 07:49:50;;;;;;;17.67;16.17;;;;;;;22.67;100.00;100493.84;20910764;28;20252;-61
2021/09/12 07:59:54;;;;;;;16.70;15.17;;;;;;;22.50;100.00;100501.16;20957510;28;20237;-64
2021/09/12 08:09:59;;;;;;;19.63;18.00;;;;;;;22.92;100.00;100492.81;20924566;28;20235;-61
2021/09/12 08:20:03;;;;;;;17.17;15.67;;;;;;;23.43;100.00;100501.44;20934109;28;20750;-60
2021/09/12 08:30:08;;;;;;;16.43;14.93;;;;;;;24.73;100.00;100496.00;20931821;28;20932;-60
2021/09/12 08:40:13;;;;;;;14.90;13.70;;;;;;;26.16;99.41;100509.06;20938425;28;20249;-60
2021/09/12 08:50:15;;;;;;;14.40;13.17;;;;;;;25.91;100.00;100502.25;20997469;28;20268;-72
2021/09/12 09:00:22;;;;;;;13.93;12.83;;;;;;;26.19;97.63;100503.19;20993155;28;20259;-65
2021/09/12 09:10:24;;;;;;;13.83;12.63;;;;;;;26.15;100.00;100498.31;20998308;28;20230;-69
2021/09/12 09:20:33;;;;;;;12.33;11.23;;;;;;;26.05;91.50;100495.91;20991150;28;20357;-67
2021/09/12 09:30:50;;;;;;;13.83;12.73;;;;;;;25.49;96.57;100484.69;20992327;28;20283;-63
2021/09/12 09:41:06;;;;;;;13.57;12.37;;;;;;;25.57;95.02;100482.91;20996523;28;20252;-60
2021/09/12 09:51:08;;;;;;;10.13;9.23;;;;;;;26.78;94.83;100494.69;20990112;28;20719;-62
2021/09/12 10:01:11;;;;;;;9.93;9.02;;;;;;;26.93;87.53;100480.06;20986918;28;20229;-62
2021/09/12 10:11:16;;;;;;;11.50;10.37;;;;;;;25.86;89.97;100462.84;20992643;28;20269;-62
2021/09/12 10:21:24;;;;;;;10.47;9.57;;;;;;;25.51;94.65;100467.25;20993255;28;20253;-61
2021/09/12 10:31:35;;;;;;;9.17;8.47;;;;;;;25.25;93.57;100468.63;20991543;28;20226;-61
2021/09/12 10:41:38;;;;;;;8.40;7.70;;;;;;;24.78;97.81;100464.34;20991156;28;20578;-61
2021/09/12 10:51:42;;;;;;;9.10;8.40;;;;;;;24.78;94.71;100445.25;20989697;28;20218;-60
2021/09/12 11:01:49;;;;;;;7.53;6.93;;;;;;;24.61;93.25;100432.81;20988993;28;20276;-62
2021/09/12 11:11:56;;;;;;;8.03;7.40;;;;;;;24.66;98.30;100435.81;20986177;28;20660;-61
2021/09/12 11:22:01;;;;;;;6.73;6.23;;;;;;;25.55;89.15;100428.44;20952694;28;20231;-62
2021/09/12 11:32:06;;;;;;;6.57;6.07;;;;;;;25.58;91.22;100438.13;20940732;28;20330;-61
2021/09/12 11:42:13;;;;;;;5.63;5.30;;;;;;;26.88;86.22;100410.25;20916274;28;20218;-63
2021/09/12 11:52:15;;;;;;;5.43;5.03;;;;;;;27.41;80.37;100401.47;20934168;28;20230;-60
2021/09/12 12:02:23;;;;;;;3.50;3.30;;;;;;;27.92;71.65;100393.56;20931690;28;20230;-59
2021/09/12 12:12:26;;;;;;;3.97;3.67;;;;;;;27.55;68.23;100384.00;20937132;28;20771;-65
2021/09/12 12:22:37;;;;;;;4.05;3.85;;;;;;;27.91;66.67;100392.72;20946610;28;20254;-59
2021/09/12 12:32:41;;;;;;;5.53;5.13;;;;;;;26.99;73.30;100405.28;20940741;28;20250;-60
2021/09/12 12:42:46;;;;;;;6.93;5.83;;;;;;;17.59;100.00;100377.09;20938486;28;20313;-64
2021/09/12 12:52:49;;;;;;;26.00;18.50;;;;;;;18.10;100.00;100385.91;20941555;28;20229;-61
2021/09/12 13:02:54;;;;;;;46.97;28.07;;;;;;;18.80;100.00;100384.56;20941895;28;20244;-62
2021/09/12 13:12:57;;;;;;;41.40;26.70;;;;;;;19.57;100.00;100384.94;20943714;28;20265;-62
2021/09/12 13:23:02;;;;;;;21.77;16.83;;;;;;;20.27;100.00;100374.19;20921021;28;21011;-68
2021/09/12 13:33:06;;;;;;;18.17;14.33;;;;;;;20.22;100.00;100371.94;20940842;28;20257;-61
2021/09/12 13:43:11;;;;;;;21.07;15.90;;;;;;;19.83;100.00;100376.03;20971934;28;21385;-63
2021/09/12 13:53:15;;;;;;;27.13;17.73;;;;;;;20.25;100.00;100371.63;20991549;28;20238;-62
2021/09/12 14:03:19;;;;;;;27.50;18.13;;;;;;;21.15;100.00;100379.19;20990560;28;20235;-63
2021/09/12 14:13:21;;;;;;;21.23;15.70;;;;;;;21.56;100.00;100377.44;20993946;28;21835;-63
2021/09/12 14:23:25;;;;;;;17.53;13.80;;;;;;;21.90;100.00;100371.84;20993129;28;20211;-63
2021/09/12 14:33:28;;;;;;;14.03;11.97;;;;;;;22.82;100.00;100366.97;20991476;28;20288;-64
2021/09/12 14:43:33;;;;;;;17.20;12.87;;;;;;;23.19;100.00;100375.28;20991735;28;20222;-64
2021/09/12 14:53:35;;;;;;;14.17;12.23;;;;;;;22.77;100.00;100374.81;20990477;28;20233;-66
2021/09/12 15:03:40;;;;;;;16.03;13.23;;;;;;;23.06;100.00;100369.59;20990168;28;20245;-65
2021/09/12 15:13:45;;;;;;;11.23;10.03;;;;;;;23.51;100.00;100360.66;20989598;28;20226;-65
2021/09/12 15:23:49;;;;;;;10.50;9.07;;;;;;;23.62;100.00;100364.84;20987760;28;20237;-67
2021/09/12 15:33:52;;;;;;;9.17;7.60;;;;;;;23.16;100.00;100364.75;20988528;28;20231;-64
2021/09/12 15:43:56;;;;;;;6.57;5.60;;;;;;;22.87;100.00;100345.50;20987883;28;20257;-68
2021/09/12 15:54:00;;;;;;;5.03;4.67;;;;;;;22.18;100.00;100341.63;20987019;28;20226;-66
2021/09/12 16:04:05;;;;;;;6.20;5.60;;;;;;;21.69;100.00;100330.78;20987031;28;20219;-65
2021/09/12 16:14:08;;;;;;;5.80;5.30;;;;;;;21.73;100.00;100332.16;20986674;28;20227;-65
2021/09/12 16:24:13;;;;;;;5.53;5.13;;;;;;;21.45;100.00;100325.34;20986641;28;20237;-64
2021/09/12 16:34:17;;;;;;;6.03;5.53;;;;;;;20.77;100.00;100311.94;20986002;28;20625;-64
2021/09/12 16:44:24;;;;;;;7.37;6.67;;;;;;;20.25;100.00;100322.00;20984514;28;20242;-63
2021/09/12 16:54:28;;;;;;;7.03;6.43;;;;;;;19.67;100.00;100328.03;20984972;28;20312;-64
2021/09/12 17:04:33;;;;;;;6.87;6.33;;;;;;;19.14;100.00;100319.88;20996856;28;20229;-63
2021/09/12 17:14:38;;;;;;;7.83;7.03;;;;;;;18.68;100.00;100332.53;20981234;28;20718;-64
2021/09/12 17:24:44;;;;;;;7.10;6.50;;;;;;;18.33;100.00;100342.19;20998721;28;20279;-62
2021/09/12 17:34:49;;;;;;;7.53;6.93;;;;;;;18.17;100.00;100336.56;20997577;28;20227;-63
2021/09/12 17:44:55;;;;;;;7.67;6.97;;;;;;;17.91;100.00;100328.22;20934089;28;20278;-62
2021/09/12 17:54:58;;;;;;;8.30;7.60;;;;;;;17.83;100.00;100340.75;20957953;28;20227;-65
2021/09/12 18:05:03;;;;;;;7.77;7.03;;;;;;;17.61;100.00;100344.59;20907614;28;20235;-63
2021/09/12 18:15:11;;;;;;;8.97;8.10;;;;;;;17.40;100.00;100344.72;20935188;28;20231;-61
2021/09/12 18:25:29;;;;;;;11.30;10.03;;;;;;;17.19;100.00;100365.56;20964605;28;20245;-68
2021/09/12 18:35:33;;;;;;;12.03;10.20;;;;;;;16.95;100.00;100373.19;20947180;28;20234;-66
2021/09/12 19:09:18;;;;;;;17.33;13.80;;;;;;;16.64;100.00;100380.47;20936065;28;20254;-66
2021/09/12 19:19:57;;;;;;;21.50;16.30;;;;;;;16.49;100.00;100377.25;20936545;28;20238;-67
2021/09/12 19:30:20;;;;;;;19.27;14.20;;;;;;;16.30;100.00;100382.56;20937930;28;20591;-67
2021/09/12 19:40:29;;;;;;;23.63;17.13;;;;;;;16.26;100.00;100381.09;20919769;28;20850;-66
2021/09/12 19:50:40;;;;;;;20.83;15.83;;;;;;;16.28;100.00;100384.50;20935812;28;20238;-66
2021/09/12 20:00:51;;;;;;;27.27;18.63;;;;;;;16.32;100.00;100380.56;20934729;28;20683;-68
2021/09/12 20:32:01;;;;;;;24.67;17.13;;;;;;;15.65;100.00;100403.34;20928053;27;20571;-67
2021/09/12 20:42:10;;;;;;;26.80;18.13;;;;;;;15.44;100.00;100405.97;20929590;28;20230;-68
2021/09/12 21:02:14;;;;;;;30.63;19.13;;;;;;;15.12;100.00;100413.97;21112788;27;20963;-67
2021/09/12 21:12:17;;;;;;;21.93;14.43;;;;;;;15.17;100.00;100413.63;21052361;28;20222;-67
2021/09/12 21:22:21;;;;;;;26.03;18.40;;;;;;;15.44;100.00;100422.09;21055184;28;20225;-66
2021/09/12 21:32:24;;;;;;;20.73;15.43;;;;;;;15.61;100.00;100418.03;21057189;28;20279;-66
2021/09/12 21:42:29;;;;;;;24.47;17.87;;;;;;;15.48;100.00;100420.84;21056800;28;20342;-65
2021/09/12 21:52:31;;;;;;;24.87;16.70;;;;;;;15.23;100.00;100418.47;21055669;28;20242;-66
2021/09/12 22:02:35;;;;;;;26.10;18.03;;;;;;;14.97;100.00;100409.03;21055055;28;20248;-66
2021/09/12 22:12:37;;;;;;;23.47;16.67;;;;;;;14.67;100.00;100410.50;21001996;28;20317;-67
2021/09/12 22:22:41;;;;;;;27.43;18.97;;;;;;;14.54;100.00;100415.13;20997954;28;20715;-66
2021/09/12 23:32:38;;;;;;;29.43;19.70;;;;;;;14.34;100.00;100394.34;20979811;27;20552;-66
2021/09/12 23:42:40;;;;;;;34.13;21.10;;;;;;;14.21;100.00;100390.91;20975309;28;20257;-66
